createdAt,value
2022-12-04T00:03:06.947Z,16.187
2022-12-04T00:06:47.725Z,16.125
2022-12-04T00:10:34.599Z,16.125
2022-12-04T00:14:14.576Z,16.062
2022-12-04T00:18:20.901Z,16.0
2022-12-04T00:22:00.906Z,16.0
2022-12-04T00:25:41.476Z,15.937
2022-12-04T00:29:21.748Z,15.937
2022-12-04T00:33:02.483Z,15.875
2022-12-04T00:36:45.683Z,15.875
2022-12-04T00:40:26.232Z,15.875
2022-12-04T00:44:06.368Z,15.812
2022-12-04T00:47:47.573Z,15.812
2022-12-04T00:51:28.324Z,15.812
2022-12-04T00:55:08.251Z,15.75
2022-12-04T00:58:50.563Z,15.75
2022-12-04T01:03:07.015Z,15.687
2022-12-04T01:06:47.280Z,15.687
2022-12-04T01:10:35.444Z,15.625
2022-12-04T01:14:15.317Z,15.625
2022-12-04T01:17:55.882Z,15.625
2022-12-04T01:21:36.410Z,15.562
2022-12-04T01:25:16.452Z,15.562
2022-12-04T01:28:56.568Z,15.562
2022-12-04T01:32:38.201Z,15.5
2022-12-04T01:36:18.341Z,15.5
2022-12-04T01:39:58.312Z,15.5
2022-12-04T01:43:38.312Z,15.5
2022-12-04T01:47:19.350Z,15.437
2022-12-04T01:50:59.503Z,15.437
2022-12-04T01:54:39.550Z,15.375
2022-12-04T01:58:19.657Z,15.375
2022-12-04T02:03:08.957Z,15.375
2022-12-04T02:06:49.247Z,15.375
2022-12-04T02:10:30.538Z,15.312
2022-12-04T02:14:10.606Z,15.312
2022-12-04T02:17:51.490Z,15.25
2022-12-04T02:21:32.070Z,15.187
2022-12-04T02:25:18.496Z,15.187
2022-12-04T02:28:58.548Z,15.187
2022-12-04T02:32:39.655Z,15.187
2022-12-04T02:36:19.751Z,15.125
2022-12-04T02:39:59.687Z,15.125
2022-12-04T02:43:39.732Z,15.125
2022-12-04T02:47:21.540Z,15.062
2022-12-04T02:51:01.499Z,15.062
2022-12-04T02:54:41.186Z,15.062
2022-12-04T02:58:21.110Z,15.0
2022-12-04T03:03:07.259Z,15.0
2022-12-04T03:06:47.497Z,14.937
2022-12-04T03:10:28.643Z,15.0
2022-12-04T03:14:08.698Z,15.125
2022-12-04T03:17:49.297Z,15.25
2022-12-04T03:21:29.838Z,15.312
2022-12-04T03:25:09.845Z,15.312
2022-12-04T03:28:49.948Z,15.312
2022-12-04T03:32:30.939Z,15.312
2022-12-04T03:36:11.157Z,15.25
2022-12-04T03:39:51.060Z,15.25
2022-12-04T03:43:37.851Z,15.25
2022-12-04T03:47:18.566Z,15.187
2022-12-04T03:51:05.684Z,15.125
2022-12-04T03:54:45.547Z,15.125
2022-12-04T03:58:25.612Z,15.062
2022-12-04T04:03:07.642Z,15.0
2022-12-04T04:06:47.740Z,14.937
2022-12-04T04:10:31.592Z,14.937
2022-12-04T04:14:11.744Z,15.0
2022-12-04T04:17:59.211Z,15.125
2022-12-04T04:21:40.234Z,15.25
2022-12-04T04:25:27.543Z,15.25
2022-12-04T04:29:07.549Z,15.25
2022-12-04T04:32:49.226Z,15.25
2022-12-04T04:36:29.180Z,15.187
2022-12-04T04:40:09.207Z,15.187
2022-12-04T04:43:49.240Z,15.125
2022-12-04T04:47:30.037Z,15.125
2022-12-04T04:51:10.183Z,15.062
2022-12-04T04:54:50.250Z,14.937
2022-12-04T04:58:30.033Z,14.875
2022-12-04T05:03:06.658Z,15.0
2022-12-04T05:08:36.933Z,15.187
2022-12-04T05:12:25.095Z,15.25
2022-12-04T05:16:06.261Z,15.25
2022-12-04T05:19:56.432Z,15.187
2022-12-04T05:23:37.581Z,15.125
2022-12-04T05:27:18.192Z,15.062
2022-12-04T05:31:05.336Z,15.062
2022-12-04T05:34:45.991Z,15.0
2022-12-04T05:38:26.586Z,14.937
2022-12-04T05:42:07.465Z,14.937
2022-12-04T05:45:47.714Z,15.0
2022-12-04T05:49:29.194Z,15.187
2022-12-04T05:53:09.692Z,15.312
2022-12-04T05:56:49.837Z,15.312
2022-12-04T06:03:07.746Z,15.187
2022-12-04T06:06:55.097Z,15.125
2022-12-04T06:10:36.458Z,15.125
2022-12-04T06:14:17.082Z,15.062
2022-12-04T06:17:58.075Z,15.0
2022-12-04T06:21:46.678Z,14.937
2022-12-04T06:25:27.154Z,14.937
2022-12-04T06:29:37.787Z,15.125
2022-12-04T06:33:18.847Z,15.187
2022-12-04T06:36:59.258Z,15.25
2022-12-04T06:40:46.581Z,15.187
2022-12-04T06:44:27.169Z,15.125
2022-12-04T06:48:18.615Z,15.125
2022-12-04T06:51:58.915Z,15.062
2022-12-04T06:55:45.787Z,15.0
2022-12-04T06:59:26.676Z,14.937
2022-12-04T07:03:07.590Z,14.937
2022-12-04T07:06:48.052Z,15.125
2022-12-04T07:10:29.400Z,15.25
2022-12-04T07:14:10.127Z,15.25
2022-12-04T07:17:51.066Z,15.187
2022-12-04T07:21:31.763Z,15.187
2022-12-04T07:25:11.988Z,15.062
2022-12-04T07:28:52.592Z,15.062
2022-12-04T07:32:42.699Z,15.0
2022-12-04T07:36:22.726Z,14.937
2022-12-04T07:40:03.509Z,14.937
2022-12-04T07:43:50.156Z,15.125
2022-12-04T07:47:30.835Z,15.312
2022-12-04T07:51:17.256Z,15.312
2022-12-04T07:54:57.577Z,15.25
2022-12-04T07:58:37.591Z,15.125
2022-12-04T08:03:08.690Z,15.062
2022-12-04T08:06:50.081Z,15.0
2022-12-04T08:10:39.163Z,14.937
2022-12-04T08:14:19.961Z,14.937
2022-12-04T08:18:01.588Z,15.125
2022-12-04T08:21:42.740Z,15.25
2022-12-04T08:25:22.943Z,15.312
2022-12-04T08:29:10.686Z,15.25
2022-12-04T08:32:52.999Z,15.187
2022-12-04T08:36:41.288Z,15.125
2022-12-04T08:40:21.971Z,15.062
2022-12-04T08:44:02.659Z,14.937
2022-12-04T08:47:45.839Z,14.937
2022-12-04T08:51:30.286Z,15.0
2022-12-04T08:55:18.952Z,15.187
2022-12-04T08:58:59.320Z,15.312
2022-12-04T09:03:07.317Z,15.312
2022-12-04T09:06:48.634Z,15.25
2022-12-04T09:10:37.437Z,15.125
2022-12-04T09:14:17.551Z,15.062
2022-12-04T09:17:59.380Z,15.0
2022-12-04T09:21:47.547Z,14.937
2022-12-04T09:25:56.969Z,15.062
2022-12-04T09:29:44.736Z,15.25
2022-12-04T09:33:26.200Z,15.312
2022-12-04T09:37:06.607Z,15.312
2022-12-04T09:40:54.279Z,15.312
2022-12-04T09:44:34.847Z,15.187
2022-12-04T09:48:20.800Z,15.062
2022-12-04T09:52:01.506Z,14.937
2022-12-04T09:55:48.055Z,14.937
2022-12-04T09:59:36.658Z,15.062
2022-12-04T10:03:09.025Z,15.187
2022-12-04T10:06:57.724Z,15.25
2022-12-04T10:10:39.830Z,15.25
2022-12-04T10:14:26.880Z,15.187
2022-12-04T10:18:15.753Z,15.062
2022-12-04T10:21:56.404Z,15.0
2022-12-04T10:25:44.262Z,14.875
2022-12-04T10:29:32.441Z,14.937
2022-12-04T10:33:14.254Z,15.187
2022-12-04T10:36:54.816Z,15.312
2022-12-04T10:40:36.040Z,15.312
2022-12-04T10:44:16.491Z,15.312
2022-12-04T10:47:58.534Z,15.187
2022-12-04T10:51:39.386Z,15.062
2022-12-04T10:55:19.890Z,14.937
2022-12-04T10:59:00.439Z,14.937
2022-12-04T11:03:08.337Z,15.125
2022-12-04T11:06:48.970Z,15.25
2022-12-04T11:10:30.946Z,15.312
2022-12-04T11:14:11.310Z,15.312
2022-12-04T11:17:53.005Z,15.25
2022-12-04T11:21:35.821Z,15.125
2022-12-04T11:25:16.121Z,15.062
2022-12-04T11:29:28.982Z,14.937
2022-12-04T11:33:10.255Z,14.875
2022-12-04T11:36:51.100Z,15.062
2022-12-04T11:40:39.891Z,15.187
2022-12-04T11:44:26.372Z,15.5
2022-12-04T11:48:07.280Z,15.875
2022-12-04T11:51:48.367Z,16.25
2022-12-04T11:55:29.632Z,16.5
2022-12-04T11:59:10.551Z,16.75
2022-12-04T12:03:09.560Z,17.0
2022-12-04T12:06:50.720Z,17.187
2022-12-04T12:10:44.577Z,17.375
2022-12-04T12:14:26.256Z,17.5
2022-12-04T12:18:16.474Z,17.687
2022-12-04T12:22:05.171Z,17.875
2022-12-04T12:25:52.073Z,18.0
2022-12-04T12:29:33.761Z,18.0
2022-12-04T12:33:15.584Z,17.875
2022-12-04T12:37:04.125Z,17.875
2022-12-04T12:40:46.143Z,17.937
2022-12-04T12:44:34.400Z,18.062
2022-12-04T12:48:17.051Z,18.0
2022-12-04T12:52:19.164Z,17.937
2022-12-04T12:56:00.139Z,17.875
2022-12-04T12:59:44.353Z,17.937
2022-12-04T13:03:08.155Z,18.062
2022-12-04T13:06:48.922Z,18.0
2022-12-04T13:10:35.703Z,17.937
2022-12-04T13:14:16.153Z,17.937
2022-12-04T13:17:57.392Z,17.937
2022-12-04T13:21:44.820Z,18.0
2022-12-04T13:25:25.661Z,18.125
2022-12-04T13:29:11.459Z,18.062
2022-12-04T13:32:59.075Z,17.937
2022-12-04T13:36:39.795Z,17.812
2022-12-04T13:40:27.535Z,17.812
2022-12-04T13:44:08.133Z,18.0
2022-12-04T13:47:49.670Z,18.125
2022-12-04T13:51:35.737Z,18.062
2022-12-04T13:55:16.941Z,17.937
2022-12-04T13:59:04.874Z,17.812
2022-12-04T14:03:07.957Z,17.875
2022-12-04T14:06:48.633Z,18.0
2022-12-04T14:10:34.851Z,18.062
2022-12-04T14:14:14.998Z,17.937
2022-12-04T14:17:56.409Z,17.75
2022-12-04T14:21:42.941Z,17.812
2022-12-04T14:25:23.961Z,17.875
2022-12-04T14:29:47.486Z,18.0
2022-12-04T14:33:28.495Z,18.125
2022-12-04T14:37:09.406Z,18.0
2022-12-04T14:40:49.993Z,17.875
2022-12-04T14:44:35.284Z,17.875
2022-12-04T14:48:16.767Z,17.875
2022-12-04T14:51:57.372Z,17.937
2022-12-04T14:55:38.150Z,18.062
2022-12-04T14:59:18.825Z,18.062
2022-12-04T15:03:14.597Z,18.0
2022-12-04T15:07:00.213Z,17.937
2022-12-04T15:10:42.192Z,17.937
2022-12-04T15:14:22.596Z,18.062
2022-12-04T15:18:04.088Z,18.062
2022-12-04T15:21:45.188Z,17.937
2022-12-04T15:25:26.237Z,17.875
2022-12-04T15:29:12.862Z,17.937
2022-12-04T15:32:54.113Z,18.0
2022-12-04T15:36:35.006Z,18.187
2022-12-04T15:40:19.293Z,18.187
2022-12-04T15:44:06.084Z,18.125
2022-12-04T15:47:47.970Z,17.937
2022-12-04T15:51:36.497Z,17.875
2022-12-04T15:55:17.444Z,18.0
2022-12-04T15:58:58.229Z,18.062
2022-12-04T16:03:07.209Z,18.0
2022-12-04T16:06:47.955Z,17.937
2022-12-04T16:10:35.730Z,17.875
2022-12-04T16:14:16.359Z,17.937
2022-12-04T16:17:57.186Z,18.062
2022-12-04T16:21:37.230Z,18.125
2022-12-04T16:25:17.917Z,18.187
2022-12-04T16:28:58.418Z,18.062
2022-12-04T16:32:46.372Z,17.875
2022-12-04T16:36:27.226Z,17.875
2022-12-04T16:40:13.313Z,17.937
2022-12-04T16:43:53.562Z,18.0
2022-12-04T16:47:35.443Z,18.125
2022-12-04T16:51:16.140Z,18.062
2022-12-04T16:55:00.475Z,18.0
2022-12-04T16:58:43.669Z,17.875
2022-12-04T17:03:07.844Z,17.875
2022-12-04T17:08:36.314Z,18.062
2022-12-04T17:12:16.670Z,18.25
2022-12-04T17:15:56.905Z,18.25
2022-12-04T17:19:50.585Z,18.125
2022-12-04T17:23:31.108Z,17.937
2022-12-04T17:27:22.437Z,17.812
2022-12-04T17:31:08.172Z,17.875
2022-12-04T17:34:49.104Z,17.937
2022-12-04T17:38:37.379Z,18.125
2022-12-04T17:42:17.527Z,18.125
2022-12-04T17:46:04.932Z,18.062
2022-12-04T17:49:50.818Z,17.937
2022-12-04T17:53:31.031Z,17.875
2022-12-04T17:57:24.366Z,17.875
2022-12-04T18:03:13.745Z,18.125
2022-12-04T18:06:54.524Z,18.062
2022-12-04T18:10:42.268Z,18.0
2022-12-04T18:14:27.847Z,17.875
2022-12-04T18:18:08.488Z,17.875
2022-12-04T18:21:56.578Z,17.937
2022-12-04T18:25:36.752Z,18.125
2022-12-04T18:29:21.920Z,18.25
2022-12-04T18:33:03.114Z,18.187
2022-12-04T18:36:48.249Z,18.062
2022-12-04T18:40:33.784Z,17.875
2022-12-04T18:44:13.991Z,17.812
2022-12-04T18:47:59.991Z,17.875
2022-12-04T18:51:41.291Z,17.937
2022-12-04T18:55:33.281Z,18.125
2022-12-04T18:59:13.588Z,18.187
2022-12-04T19:03:07.870Z,18.062
2022-12-04T19:06:48.713Z,18.0
2022-12-04T19:11:00.868Z,17.812
2022-12-04T19:14:55.363Z,17.875
2022-12-04T19:18:36.427Z,17.937
2022-12-04T19:22:22.437Z,18.125
2022-12-04T19:26:03.367Z,18.125
2022-12-04T19:29:43.764Z,18.0
2022-12-04T19:33:32.408Z,17.875
2022-12-04T19:37:12.811Z,17.875
2022-12-04T19:40:53.029Z,18.0
2022-12-04T19:45:21.700Z,18.125
2022-12-04T19:49:02.761Z,18.187
2022-12-04T19:52:43.751Z,18.125
2022-12-04T19:56:29.782Z,17.937
2022-12-04T20:03:08.337Z,17.812
2022-12-04T20:06:48.645Z,17.937
2022-12-04T20:10:36.019Z,18.062
2022-12-04T20:14:16.179Z,18.187
2022-12-04T20:17:57.029Z,18.125
2022-12-04T20:21:37.650Z,18.0
2022-12-04T20:25:18.134Z,17.875
2022-12-04T20:29:03.240Z,17.937
2022-12-04T20:32:45.224Z,18.062
2022-12-04T20:36:31.728Z,18.062
2022-12-04T20:40:11.930Z,18.062
2022-12-04T20:43:57.150Z,18.0
2022-12-04T20:47:38.083Z,17.937
2022-12-04T20:51:19.182Z,18.0
2022-12-04T20:55:07.379Z,18.125
2022-12-04T20:58:47.614Z,18.187
2022-12-04T21:03:08.175Z,18.062
2022-12-04T21:06:55.326Z,17.937
2022-12-04T21:10:36.873Z,17.875
2022-12-04T21:14:23.383Z,17.937
2022-12-04T21:18:04.165Z,18.062
2022-12-04T21:21:53.073Z,18.187
2022-12-04T21:25:33.199Z,18.125
2022-12-04T21:29:13.605Z,18.0
2022-12-04T21:32:54.875Z,17.875
2022-12-04T21:36:35.057Z,17.937
2022-12-04T21:40:15.726Z,18.062
2022-12-04T21:43:55.851Z,18.125
2022-12-04T21:47:43.967Z,18.062
2022-12-04T21:51:55.221Z,17.937
2022-12-04T21:55:36.885Z,17.937
2022-12-04T21:59:16.911Z,17.937
2022-12-04T22:03:07.128Z,18.062
2022-12-04T22:06:47.489Z,18.187
2022-12-04T22:10:36.792Z,18.125
2022-12-04T22:14:41.136Z,17.937
2022-12-04T22:18:29.142Z,17.812
2022-12-04T22:22:09.554Z,17.625
2022-12-04T22:25:50.565Z,17.437
2022-12-04T22:30:14.566Z,17.312
2022-12-04T22:33:55.364Z,17.187
2022-12-04T22:37:39.676Z,17.062
2022-12-04T22:41:52.611Z,16.937
2022-12-04T22:45:33.240Z,16.75
2022-12-04T22:49:14.271Z,16.625
2022-12-04T22:52:54.633Z,16.562
2022-12-04T22:56:34.717Z,16.562
2022-12-04T23:03:07.458Z,16.375
2022-12-04T23:06:48.688Z,16.375
2022-12-04T23:10:30.081Z,16.312
2022-12-04T23:14:10.291Z,16.25
2022-12-04T23:18:01.962Z,16.187
2022-12-04T23:21:42.493Z,16.187
2022-12-04T23:25:31.242Z,16.125
2022-12-04T23:29:29.722Z,16.062
2022-12-04T23:33:32.608Z,16.062
2022-12-04T23:37:12.784Z,16.0
2022-12-04T23:40:52.790Z,15.937
2022-12-04T23:44:32.965Z,15.937
2022-12-04T23:48:13.756Z,15.875
2022-12-04T23:51:53.747Z,15.875
2022-12-04T23:55:34.466Z,15.812
2022-12-04T23:59:14.905Z,15.812
